Time;durP1;ratioP1;P1;durP2;ratioP2;P2;SDS_P1;SDS_P2;PMS_P1;PMS_P2;Temp;Humidity;BMP_temperature;BMP_pressure;BME280_temperature;BME280_humidity;BME280_pressure;Samples;Min_cycle;Max_cycle;Signal;HPM_P1;HPM_P2
2024/03/02 00:01:48;;;;;;;1.92;0.80;;;8.90;68.60;;;;;;2317318;54;20933;-65
2024/03/02 00:04:14;;;;;;;2.15;0.82;;;8.80;68.60;;;;;;2338468;54;22461;-64
2024/03/02 00:06:40;;;;;;;1.50;0.60;;;8.80;68.60;;;;;;2585936;53;20949;-65
2024/03/02 00:09:07;;;;;;;2.33;0.90;;;8.70;68.40;;;;;;2339100;54;21023;-64
2024/03/02 00:11:36;;;;;;;2.28;0.95;;;8.70;68.40;;;;;;2316487;54;21553;-64
2024/03/02 00:14:03;;;;;;;2.58;1.00;;;8.70;68.40;;;;;;2585575;53;20924;-65
2024/03/02 00:16:31;;;;;;;2.83;1.20;;;8.60;68.40;;;;;;2340160;54;21536;-65
2024/03/02 00:19:02;;;;;;;2.12;1.08;;;8.60;68.50;;;;;;2340087;54;20976;-65
2024/03/02 00:21:37;;;;;;;2.78;1.05;;;8.60;68.40;;;;;;2339759;54;20949;-64
2024/03/02 00:24:19;;;;;;;2.03;0.90;;;8.50;68.30;;;;;;2340254;54;21805;-66
2024/03/02 00:26:46;;;;;;;3.25;1.10;;;8.50;68.10;;;;;;2340141;54;21228;-64
2024/03/02 00:29:13;;;;;;;3.58;1.65;;;8.40;68.40;;;;;;2339793;54;21012;-65
2024/03/02 00:31:40;;;;;;;2.15;0.85;;;8.40;68.50;;;;;;2340282;54;21344;-64
2024/03/02 00:34:07;;;;;;;3.42;1.10;;;8.40;68.50;;;;;;2339621;54;20944;-64
2024/03/02 00:36:33;;;;;;;3.00;1.02;;;8.30;68.60;;;;;;2340133;54;21007;-64
2024/03/02 00:38:59;;;;;;;3.08;1.10;;;8.30;68.70;;;;;;2585835;53;20940;-66
2024/03/02 00:41:30;;;;;;;1.92;0.90;;;8.30;68.80;;;;;;2340327;54;21746;-65
2024/03/02 00:44:15;;;;;;;2.42;1.12;;;8.20;68.70;;;;;;2340337;54;21017;-64
2024/03/02 00:46:43;;;;;;;2.62;1.30;;;8.20;68.30;;;;;;2341469;54;20952;-64
2024/03/02 00:49:28;;;;;;;1.95;0.90;;;8.20;68.80;;;;;;2585951;53;21672;-64
2024/03/02 00:51:54;;;;;;;2.50;1.00;;;8.20;68.30;;;;;;2340167;54;20981;-66
2024/03/02 00:54:24;;;;;;;3.08;1.10;;;8.10;69.40;;;;;;2585642;53;21256;-64
2024/03/02 00:56:50;;;;;;;3.05;1.40;;;8.10;68.60;;;;;;2339802;54;20987;-64
2024/03/02 00:59:17;;;;;;;3.47;1.33;;;8.10;68.60;;;;;;2332964;54;21326;-65
2024/03/02 01:01:46;;;;;;;3.70;1.20;;;8.10;68.60;;;;;;2323840;54;20991;-64
2024/03/02 01:04:14;;;;;;;2.55;1.20;;;8.10;68.60;;;;;;2585830;53;20960;-65
2024/03/02 01:06:40;;;;;;;2.83;1.27;;;8.00;68.40;;;;;;2339220;54;21005;-64
2024/03/02 01:09:07;;;;;;;3.50;1.40;;;7.90;68.40;;;;;;2339272;54;21041;-65
2024/03/02 01:11:33;;;;;;;3.22;1.20;;;7.90;68.40;;;;;;2339741;54;20961;-66
2024/03/02 01:13:59;;;;;;;4.85;1.80;;;7.90;68.40;;;;;;2340271;54;21185;-65
2024/03/02 01:16:26;;;;;;;2.58;1.10;;;7.90;68.40;;;;;;2585488;53;20940;-64
2024/03/02 01:18:52;;;;;;;3.08;1.30;;;7.80;68.40;;;;;;2340167;54;20921;-65
2024/03/02 01:21:19;;;;;;;3.65;1.30;;;7.80;68.40;;;;;;2339190;54;21443;-66
2024/03/02 01:23:45;;;;;;;2.45;1.05;;;7.70;68.30;;;;;;2339780;54;21474;-65
2024/03/02 01:26:11;;;;;;;2.72;1.20;;;7.70;68.40;;;;;;2585641;53;20917;-64
2024/03/02 01:28:38;;;;;;;4.22;1.40;;;7.70;68.40;;;;;;2339625;54;20961;-66
2024/03/02 01:31:04;;;;;;;4.53;1.45;;;7.60;68.40;;;;;;2585471;53;20956;-66
2024/03/02 01:33:30;;;;;;;3.58;1.52;;;7.60;68.50;;;;;;2336357;54;21026;-65
2024/03/02 01:35:57;;;;;;;4.00;1.83;;;7.60;68.50;;;;;;2320508;55;21431;-65
2024/03/02 01:38:23;;;;;;;4.00;1.80;;;7.50;68.40;;;;;;2333470;54;21445;-65
2024/03/02 01:40:49;;;;;;;4.57;1.50;;;7.50;68.40;;;;;;2585567;53;21019;-66
2024/03/02 01:43:16;;;;;;;5.03;2.10;;;7.50;68.50;;;;;;2585372;53;20940;-65
2024/03/02 01:45:42;;;;;;;3.60;1.62;;;7.40;68.50;;;;;;2339159;54;21060;-65
2024/03/02 01:48:11;;;;;;;3.78;1.70;;;7.50;68.50;;;;;;2585190;53;21032;-65
2024/03/02 01:50:38;;;;;;;4.72;1.90;;;7.40;68.50;;;;;;2585063;53;21520;-65
2024/03/02 01:53:04;;;;;;;4.93;2.20;;;7.40;68.50;;;;;;2338791;54;20936;-66
2024/03/02 01:55:31;;;;;;;5.50;2.25;;;7.40;68.50;;;;;;2339415;54;20981;-66
2024/03/02 01:57:57;;;;;;;6.87;3.00;;;7.30;68.40;;;;;;2340275;54;20937;-65
2024/03/02 02:00:26;;;;;;;8.35;3.92;;;7.30;68.40;;;;;;2339821;54;21012;-64
2024/03/02 02:02:52;;;;;;;7.53;3.55;;;7.20;68.30;;;;;;2585964;53;21405;-66
2024/03/02 02:05:19;;;;;;;8.68;3.67;;;7.20;68.40;;;;;;2339494;54;20949;-65
2024/03/02 02:07:46;;;;;;;8.48;3.65;;;7.20;68.40;;;;;;2339781;54;20961;-65
2024/03/02 02:10:12;;;;;;;8.35;3.50;;;7.10;68.30;;;;;;2585183;53;21441;-66
2024/03/02 02:12:40;;;;;;;7.12;3.47;;;7.10;68.40;;;;;;2339654;54;21024;-65
2024/03/02 02:15:29;;;;;;;6.50;2.67;;;7.10;68.40;;;;;;2585742;53;21466;-66
2024/03/02 02:17:56;;;;;;;6.85;3.12;;;7.10;68.10;;;;;;2340473;54;20932;-65
2024/03/02 02:20:22;;;;;;;7.85;3.20;;;7.00;68.50;;;;;;2339725;54;25231;-65
2024/03/02 02:23:02;;;;;;;6.07;2.80;;;7.00;68.50;;;;;;2339958;54;20968;-64
2024/03/02 02:25:29;;;;;;;6.07;2.47;;;7.00;68.30;;;;;;2307514;55;21038;-66
2024/03/02 02:27:58;;;;;;;5.55;2.62;;;7.00;68.50;;;;;;2306928;54;21240;-65
2024/03/02 02:30:26;;;;;;;4.07;1.87;;;6.90;68.50;;;;;;2339848;54;21107;-65
2024/03/02 02:32:53;;;;;;;4.75;2.37;;;6.90;69.40;;;;;;2339993;54;20957;-64
2024/03/02 02:35:19;;;;;;;3.85;1.70;;;6.90;68.70;;;;;;2339196;54;21012;-65
2024/03/02 02:37:46;;;;;;;3.90;1.58;;;6.90;68.70;;;;;;2586040;53;20945;-65
2024/03/02 02:40:14;;;;;;;3.37;1.40;;;6.90;68.70;;;;;;2585815;53;21260;-66
2024/03/02 02:42:41;;;;;;;3.10;1.40;;;6.80;68.60;;;;;;2342598;54;20964;-65
2024/03/02 02:45:07;;;;;;;3.83;1.67;;;6.70;68.50;;;;;;2342442;54;21651;-66
2024/03/02 02:47:35;;;;;;;4.10;1.60;;;6.80;68.60;;;;;;2340690;54;21020;-65
2024/03/02 02:50:06;;;;;;;3.35;1.25;;;6.80;68.70;;;;;;2586522;53;21744;-65
2024/03/02 02:52:33;;;;;;;3.53;1.13;;;6.80;68.60;;;;;;2339324;54;21011;-65
2024/03/02 02:55:00;;;;;;;3.00;1.02;;;6.80;68.70;;;;;;2342137;54;20945;-66
2024/03/02 02:57:30;;;;;;;2.47;1.05;;;6.70;68.50;;;;;;2339327;54;20933;-64
2024/03/02 02:59:59;;;;;;;2.75;0.93;;;6.70;68.60;;;;;;2340678;54;20925;-64
2024/03/02 03:02:28;;;;;;;2.55;1.02;;;6.70;68.50;;;;;;2339879;54;21072;-65
2024/03/02 03:04:57;;;;;;;2.35;1.00;;;6.70;69.30;;;;;;2564487;53;21239;-63
2024/03/02 03:07:25;;;;;;;2.50;1.10;;;6.70;68.60;;;;;;2331424;54;21257;-66
2024/03/02 03:09:51;;;;;;;2.87;1.15;;;6.60;68.50;;;;;;2585284;53;20970;-65
2024/03/02 03:12:18;;;;;;;2.20;1.02;;;6.60;68.50;;;;;;2339315;54;21444;-65
2024/03/02 03:14:44;;;;;;;3.10;1.27;;;6.60;68.40;;;;;;2585158;53;21001;-65
2024/03/02 03:17:13;;;;;;;2.80;1.20;;;6.60;68.40;;;;;;2339741;54;20941;-65
2024/03/02 03:19:39;;;;;;;2.83;1.20;;;6.50;68.30;;;;;;2339305;54;20921;-66
2024/03/02 03:22:06;;;;;;;3.20;1.30;;;6.50;68.40;;;;;;2585531;53;20925;-65
2024/03/02 03:24:35;;;;;;;2.53;1.20;;;6.50;68.40;;;;;;2338962;54;21023;-66
2024/03/02 03:27:01;;;;;;;2.87;1.20;;;6.40;68.40;;;;;;2339869;54;21230;-64
2024/03/02 03:29:27;;;;;;;2.47;1.12;;;6.40;68.40;;;;;;2339564;54;21012;-65
2024/03/02 03:31:54;;;;;;;3.10;1.50;;;6.40;68.40;;;;;;2558032;53;21499;-65
2024/03/02 03:34:20;;;;;;;3.00;1.30;;;6.40;68.40;;;;;;2336604;54;20949;-64
2024/03/02 03:36:46;;;;;;;2.37;1.10;;;6.30;68.40;;;;;;2339789;54;20953;-66
2024/03/02 03:39:13;;;;;;;3.28;1.52;;;6.30;68.40;;;;;;2322506;54;20959;-65
2024/03/02 03:41:40;;;;;;;2.37;1.25;;;6.30;68.40;;;;;;2333888;54;22010;-64
2024/03/02 03:44:07;;;;;;;3.20;1.17;;;6.30;68.50;;;;;;2339952;54;20921;-66
2024/03/02 03:46:33;;;;;;;2.50;1.20;;;6.20;68.40;;;;;;2339951;54;21514;-66
2024/03/02 03:49:00;;;;;;;2.10;0.95;;;6.30;68.50;;;;;;2339985;54;21509;-66
2024/03/02 03:51:26;;;;;;;2.97;1.40;;;6.20;68.50;;;;;;2340242;54;20932;-65
2024/03/02 03:53:54;;;;;;;2.90;1.40;;;6.20;68.50;;;;;;2339537;54;21425;-65
2024/03/02 03:56:20;;;;;;;2.78;1.17;;;6.20;68.50;;;;;;2340122;54;20956;-65
2024/03/02 03:58:48;;;;;;;3.05;1.17;;;6.10;68.40;;;;;;2340092;54;21559;-65
2024/03/02 04:01:15;;;;;;;3.20;1.50;;;6.10;68.40;;;;;;2339979;54;21013;-65
2024/03/02 04:03:42;;;;;;;2.90;1.27;;;6.10;68.40;;;;;;2339554;54;21205;-65
2024/03/02 04:06:08;;;;;;;3.28;1.50;;;6.10;68.40;;;;;;2340124;54;20964;-65
2024/03/02 04:08:34;;;;;;;3.40;1.30;;;6.10;68.50;;;;;;2585678;53;21040;-66
2024/03/02 04:11:02;;;;;;;2.92;1.33;;;6.00;68.50;;;;;;2585680;53;20920;-66
2024/03/02 04:13:29;;;;;;;2.67;1.27;;;6.00;68.50;;;;;;2340085;54;22248;-66
2024/03/02 04:15:55;;;;;;;4.78;1.75;;;6.00;68.60;;;;;;2340400;54;20969;-64
2024/03/02 04:18:21;;;;;;;3.40;1.50;;;6.00;68.70;;;;;;2340207;54;20944;-66
2024/03/02 04:20:49;;;;;;;3.50;1.90;;;6.00;68.80;;;;;;2339499;54;21304;-65
2024/03/02 04:23:16;;;;;;;3.58;1.35;;;6.00;68.90;;;;;;2339827;54;20949;-65
2024/03/02 04:25:43;;;;;;;4.68;1.75;;;6.00;68.90;;;;;;2339788;54;20981;-65
2024/03/02 04:28:09;;;;;;;3.10;1.60;;;6.00;68.90;;;;;;2586489;53;20941;-66
2024/03/02 04:30:36;;;;;;;3.75;1.70;;;6.00;68.90;;;;;;2339991;54;21004;-66
2024/03/02 04:33:03;;;;;;;3.90;2.10;;;6.00;68.90;;;;;;2339570;54;21001;-66
2024/03/02 04:35:29;;;;;;;4.78;2.55;;;6.00;68.90;;;;;;2340023;54;21023;-65
2024/03/02 04:37:56;;;;;;;3.53;1.83;;;5.90;68.80;;;;;;2339792;54;21546;-65
2024/03/02 04:40:22;;;;;;;4.47;1.70;;;6.00;69.00;;;;;;2585597;53;20964;-66
2024/03/02 04:42:49;;;;;;;3.50;1.58;;;5.90;69.00;;;;;;2339763;54;21001;-64
2024/03/02 04:45:15;;;;;;;3.35;1.15;;;5.90;69.00;;;;;;2339624;54;21190;-65
2024/03/02 04:47:42;;;;;;;3.28;1.50;;;5.90;69.00;;;;;;2585269;53;21659;-65
2024/03/02 04:50:09;;;;;;;2.75;1.45;;;5.90;69.10;;;;;;2339119;54;20957;-65
2024/03/02 04:52:35;;;;;;;3.42;1.40;;;5.90;69.10;;;;;;2586131;53;21440;-66
2024/03/02 04:58:50;;;;;;;2.53;1.15;;;5.90;69.10;;;;;;2339673;54;21048;-65
2024/03/02 05:01:17;;;;;;;2.83;1.30;;;5.90;69.10;;;;;;2339460;54;21284;-66
2024/03/02 05:03:43;;;;;;;2.70;1.30;;;5.90;69.10;;;;;;2338976;54;21076;-66
2024/03/02 05:06:09;;;;;;;2.67;1.10;;;5.90;69.10;;;;;;2339769;54;21095;-65
2024/03/02 05:08:36;;;;;;;2.85;1.20;;;5.90;69.10;;;;;;2339473;54;20945;-65
2024/03/02 05:13:47;;;;;;;2.33;1.10;;;5.90;69.10;;;;;;2339422;54;20941;-67
2024/03/02 05:16:13;;;;;;;2.62;1.30;;;5.90;69.00;;;;;;2339542;54;21763;-64
2024/03/02 05:18:39;;;;;;;3.28;1.55;;;5.90;69.00;;;;;;2339469;54;21422;-65
2024/03/02 05:21:07;;;;;;;2.60;1.20;;;5.90;69.00;;;;;;2585033;53;21383;-65
2024/03/02 05:23:35;;;;;;;3.17;1.45;;;5.90;69.00;;;;;;2585508;53;21457;-65
2024/03/02 05:26:02;;;;;;;3.15;1.50;;;5.80;68.80;;;;;;2339681;54;21049;-65
2024/03/02 05:28:29;;;;;;;9.48;3.95;;;5.90;68.90;;;;;;2586056;53;20984;-65
2024/03/02 05:30:55;;;;;;;7.80;3.37;;;5.80;68.80;;;;;;2339870;54;20933;-65
2024/03/02 05:33:22;;;;;;;5.60;2.95;;;5.80;68.80;;;;;;2339296;54;21283;-65
2024/03/02 05:35:52;;;;;;;5.95;2.55;;;5.80;68.80;;;;;;2339274;54;21383;-65
2024/03/02 05:38:18;;;;;;;5.15;2.17;;;5.80;68.80;;;;;;2339926;54;20956;-66
2024/03/02 05:40:44;;;;;;;5.00;1.98;;;5.80;68.80;;;;;;2339409;54;21372;-65
2024/03/02 05:43:11;;;;;;;3.65;1.48;;;5.80;68.90;;;;;;2339985;54;20992;-66
2024/03/02 05:45:37;;;;;;;4.10;1.80;;;5.80;68.90;;;;;;2585365;53;20925;-66
2024/03/02 05:48:04;;;;;;;13.20;5.97;;;5.80;68.90;;;;;;2339651;54;21860;-65
2024/03/02 05:50:31;;;;;;;9.27;4.30;;;5.80;68.80;;;;;;2339969;54;21004;-65
2024/03/02 05:52:58;;;;;;;13.35;6.50;;;5.70;68.70;;;;;;2585557;53;20992;-65
2024/03/02 05:55:25;;;;;;;14.15;7.30;;;5.70;68.70;;;;;;2339931;54;21401;-65
2024/03/02 06:02:09;;;;;;;15.38;6.80;;;5.70;68.90;;;;;;2340602;54;20932;-66
2024/03/02 06:04:35;;;;;;;18.23;7.80;;;5.70;68.90;;;;;;2340421;54;21485;-65
2024/03/02 06:07:03;;;;;;;15.98;6.78;;;5.70;69.00;;;;;;2339772;54;21837;-66
2024/03/02 06:09:30;;;;;;;20.65;9.95;;;5.70;69.10;;;;;;2340180;54;20949;-65
2024/03/02 06:11:56;;;;;;;18.80;8.88;;;5.70;69.20;;;;;;2315911;54;20960;-65
2024/03/02 06:14:22;;;;;;;16.23;8.15;;;5.70;69.30;;;;;;2586164;53;20991;-66
2024/03/02 06:16:49;;;;;;;11.80;6.07;;;5.70;69.40;;;;;;2338952;54;21343;-65
2024/03/02 06:19:15;;;;;;;12.50;5.78;;;5.70;69.40;;;;;;2340225;54;21315;-65
2024/03/02 06:21:41;;;;;;;9.27;4.07;;;5.70;69.50;;;;;;2586135;53;21076;-66
2024/03/02 06:24:08;;;;;;;7.43;3.75;;;5.80;69.70;;;;;;2339711;54;21691;-66
2024/03/02 06:26:34;;;;;;;9.15;4.10;;;5.70;69.70;;;;;;2340541;54;20988;-66
2024/03/02 06:29:02;;;;;;;8.05;4.07;;;5.80;69.90;;;;;;2338553;54;20957;-65
2024/03/02 06:31:28;;;;;;;11.90;4.87;;;5.80;70.00;;;;;;2340210;54;20991;-65
2024/03/02 06:33:54;;;;;;;8.07;4.00;;;5.80;70.10;;;;;;2339322;54;20980;-65
2024/03/02 06:36:21;;;;;;;7.90;4.03;;;5.90;70.30;;;;;;2339864;54;21197;-66
2024/03/02 06:38:47;;;;;;;10.23;5.18;;;5.90;70.30;;;;;;2339961;54;20941;-66
2024/03/02 06:41:13;;;;;;;13.25;6.60;;;5.90;70.40;;;;;;2308615;54;21031;-66
2024/03/02 06:43:40;;;;;;;10.85;5.97;;;6.00;70.50;;;;;;2307948;54;20963;-66
2024/03/02 06:46:09;;;;;;;12.90;6.97;;;6.00;70.60;;;;;;2546544;54;20979;-65
2024/03/02 06:48:36;;;;;;;14.30;7.60;;;6.10;70.70;;;;;;2308107;54;20975;-66
2024/03/02 06:51:03;;;;;;;19.60;10.20;;;6.10;70.70;;;;;;2307600;54;21781;-65
2024/03/02 06:53:30;;;;;;;18.80;9.95;;;6.20;70.80;;;;;;2308493;54;20955;-66
2024/03/02 06:55:56;;;;;;;22.30;11.45;;;6.20;70.70;;;;;;2546295;54;21528;-65
2024/03/02 06:58:22;;;;;;;20.60;10.57;;;6.30;70.80;;;;;;2546965;54;20956;-66
2024/03/02 07:00:49;;;;;;;16.27;9.27;;;6.30;70.80;;;;;;2307878;54;21428;-65
2024/03/02 07:03:15;;;;;;;15.55;8.23;;;6.40;71.00;;;;;;2307029;54;21006;-65
2024/03/02 07:05:41;;;;;;;18.12;9.32;;;6.40;71.00;;;;;;2307534;54;21070;-65
2024/03/02 07:08:08;;;;;;;20.10;9.98;;;6.50;71.10;;;;;;2308061;54;20974;-66
2024/03/02 07:10:34;;;;;;;17.87;9.45;;;6.50;71.10;;;;;;2547540;54;21039;-64
2024/03/02 07:13:00;;;;;;;14.75;7.53;;;6.60;71.30;;;;;;2546127;54;20943;-65
2024/03/02 07:19:29;;;;;;;9.07;5.22;;;6.70;71.40;;;;;;2308969;54;21027;-65
2024/03/02 07:21:56;;;;;;;8.02;4.40;;;6.80;71.40;;;;;;2307190;54;20955;-64
2024/03/02 07:24:22;;;;;;;8.18;4.53;;;6.80;71.40;;;;;;2535291;54;21270;-64
2024/03/02 07:26:49;;;;;;;8.95;5.55;;;6.90;71.50;;;;;;2565183;53;21616;-67
2024/03/02 07:29:18;;;;;;;8.98;5.28;;;6.90;71.50;;;;;;2566242;53;21013;-64
2024/03/02 07:31:45;;;;;;;8.23;4.75;;;7.00;71.70;;;;;;2579249;53;21458;-65
2024/03/02 07:34:11;;;;;;;7.18;4.47;;;7.10;71.80;;;;;;2333932;54;20993;-64
2024/03/02 07:36:40;;;;;;;7.00;4.07;;;7.10;71.80;;;;;;2579557;53;21333;-65
2024/03/02 07:39:08;;;;;;;6.10;3.55;;;7.20;71.90;;;;;;2334416;54;21280;-65
2024/03/02 07:41:34;;;;;;;6.75;3.45;;;7.20;71.90;;;;;;2335261;54;20952;-65
2024/03/02 07:44:00;;;;;;;6.45;3.70;;;7.30;72.10;;;;;;2336523;54;20988;-65
2024/03/02 07:46:27;;;;;;;8.00;3.60;;;7.40;72.20;;;;;;2305700;54;20940;-66
2024/03/02 07:48:53;;;;;;;5.22;2.92;;;7.40;72.20;;;;;;2579370;53;20969;-65
2024/03/02 07:51:20;;;;;;;6.53;3.55;;;7.50;72.40;;;;;;2542683;53;20965;-66
2024/03/02 07:53:46;;;;;;;6.25;3.03;;;7.60;72.40;;;;;;2332016;54;21071;-64
2024/03/02 07:56:13;;;;;;;5.93;3.28;;;7.60;72.50;;;;;;2309590;54;21017;-65
2024/03/02 07:58:41;;;;;;;6.28;3.53;;;7.70;72.60;;;;;;2334876;54;20985;-64
2024/03/02 08:01:12;;;;;;;5.62;3.30;;;7.80;72.70;;;;;;2333872;54;20965;-65
2024/03/02 08:03:38;;;;;;;7.10;4.00;;;7.80;72.70;;;;;;2334799;54;20953;-64
2024/03/02 08:06:06;;;;;;;5.87;3.40;;;7.90;72.80;;;;;;2333326;54;20949;-66
2024/03/02 08:08:32;;;;;;;5.75;3.15;;;8.00;72.90;;;;;;2579581;53;20996;-65
2024/03/02 08:10:59;;;;;;;6.32;3.53;;;8.10;73.10;;;;;;2316713;54;21712;-65
2024/03/02 08:13:26;;;;;;;6.50;3.35;;;8.10;73.10;;;;;;2301027;54;20981;-65
2024/03/02 08:15:52;;;;;;;6.12;3.42;;;8.20;73.20;;;;;;2316535;54;21482;-65
2024/03/02 08:18:19;;;;;;;5.57;3.22;;;8.30;73.30;;;;;;2326083;54;21517;-65
2024/03/02 08:20:45;;;;;;;5.62;3.10;;;8.30;73.30;;;;;;2334352;54;20953;-65
2024/03/02 08:23:12;;;;;;;6.62;3.60;;;8.40;73.40;;;;;;2578813;53;21076;-66
2024/03/02 08:25:38;;;;;;;6.43;3.87;;;8.50;73.50;;;;;;2334685;54;20980;-66
2024/03/02 08:28:05;;;;;;;6.22;4.03;;;8.60;73.50;;;;;;2334253;54;21121;-65
2024/03/02 08:30:31;;;;;;;7.35;4.35;;;8.70;73.60;;;;;;2335066;54;20944;-64
2024/03/02 08:32:58;;;;;;;6.50;3.70;;;8.80;73.70;;;;;;2334504;54;20965;-65
2024/03/02 08:35:24;;;;;;;6.35;3.92;;;8.70;73.50;;;;;;2579772;53;20945;-65
2024/03/02 08:37:50;;;;;;;7.40;4.43;;;8.90;73.70;;;;;;2324304;54;20947;-64
2024/03/02 08:40:17;;;;;;;5.97;3.67;;;9.00;73.80;;;;;;2317179;54;21601;-65
2024/03/02 08:42:45;;;;;;;7.22;4.10;;;9.10;73.90;;;;;;2335585;54;20941;-66
2024/03/02 08:45:11;;;;;;;8.90;4.37;;;9.10;74.00;;;;;;2334532;54;21024;-66
2024/03/02 08:47:38;;;;;;;8.40;4.20;;;9.20;74.10;;;;;;2335215;54;20973;-65
2024/03/02 08:50:06;;;;;;;7.75;4.32;;;9.30;74.20;;;;;;2334307;54;21001;-65
2024/03/02 08:52:32;;;;;;;7.78;4.57;;;9.40;74.40;;;;;;2579548;53;21327;-64
2024/03/02 08:54:58;;;;;;;7.37;4.28;;;9.50;74.60;;;;;;2334425;54;20937;-66
2024/03/02 08:57:25;;;;;;;6.43;4.07;;;9.60;75.00;;;;;;2335157;54;21437;-66
2024/03/02 08:59:54;;;;;;;8.13;4.28;;;9.70;75.30;;;;;;2333897;54;20957;-66
2024/03/02 09:02:20;;;;;;;9.07;4.55;;;9.90;75.70;;;;;;2306467;55;21469;-67
2024/03/02 09:04:49;;;;;;;7.62;4.62;;;10.00;74.80;;;;;;2578207;53;21732;-66
2024/03/02 09:07:16;;;;;;;8.85;5.10;;;10.10;75.20;;;;;;2578421;53;20977;-66
2024/03/02 09:09:42;;;;;;;7.22;4.35;;;10.30;76.00;;;;;;2334438;54;20941;-66
2024/03/02 09:12:08;;;;;;;8.23;4.97;;;10.50;76.50;;;;;;2578364;53;20964;-67
2024/03/02 09:14:35;;;;;;;7.37;4.70;;;10.70;76.70;;;;;;2335422;54;21033;-65
2024/03/02 09:17:02;;;;;;;6.85;3.80;;;10.90;77.20;;;;;;2332986;54;20993;-68
2024/03/02 09:19:28;;;;;;;6.22;3.65;;;11.00;77.30;;;;;;2334504;54;21000;-66
2024/03/02 09:21:55;;;;;;;5.32;3.15;;;11.20;77.30;;;;;;2579070;53;20933;-67
2024/03/02 09:24:22;;;;;;;7.57;3.53;;;11.40;77.20;;;;;;2578474;53;21509;-67
2024/03/02 09:26:48;;;;;;;5.18;3.40;;;11.60;77.20;;;;;;2579116;53;20965;-67
2024/03/02 09:29:14;;;;;;;6.62;3.42;;;11.70;76.80;;;;;;2334239;54;21288;-67
2024/03/02 09:31:41;;;;;;;5.35;3.28;;;11.70;76.40;;;;;;2335073;54;21241;-67
2024/03/02 09:34:08;;;;;;;5.15;3.03;;;12.00;76.50;;;;;;2333209;54;21487;-67
2024/03/02 09:36:35;;;;;;;5.18;3.20;;;12.20;76.70;;;;;;2578552;53;20949;-67
2024/03/02 09:39:03;;;;;;;5.65;3.25;;;12.30;76.70;;;;;;2323636;54;20958;-68
2024/03/02 09:41:33;;;;;;;6.00;2.97;;;12.40;76.60;;;;;;2560921;53;21159;-66
2024/03/02 09:43:59;;;;;;;5.10;3.08;;;12.50;76.60;;;;;;2307073;55;21013;-67
2024/03/02 09:46:26;;;;;;;6.78;3.62;;;12.70;76.90;;;;;;2336379;54;20937;-67
2024/03/02 09:48:52;;;;;;;6.50;4.05;;;12.80;77.00;;;;;;2334883;54;21717;-67
2024/03/02 09:51:19;;;;;;;6.93;4.57;;;13.00;77.50;;;;;;2579049;53;20941;-65
2024/03/02 09:53:47;;;;;;;6.45;4.28;;;13.10;77.70;;;;;;2327893;54;20990;-66
2024/03/02 09:56:13;;;;;;;8.15;5.03;;;13.30;78.80;;;;;;2554671;53;21049;-66
2024/03/02 09:58:39;;;;;;;7.07;4.20;;;13.50;78.20;;;;;;2335119;54;20985;-67
2024/03/02 10:01:09;;;;;;;6.75;4.60;;;13.70;78.20;;;;;;2322588;54;21531;-70
2024/03/02 10:03:39;;;;;;;5.90;3.80;;;13.80;78.20;;;;;;2321384;54;20937;-67
2024/03/02 10:06:25;;;;;;;7.30;4.65;;;14.00;77.90;;;;;;2578701;53;21261;-68
2024/03/02 10:08:52;;;;;;;4.85;3.20;;;14.20;76.60;;;;;;2335256;54;20905;-68
2024/03/02 10:11:27;;;;;;;5.22;3.50;;;14.30;77.90;;;;;;2334644;54;21012;-68
2024/03/02 10:14:10;;;;;;;5.07;3.25;;;14.50;77.10;;;;;;2579255;53;20994;-69
2024/03/02 10:16:37;;;;;;;5.25;3.37;;;14.60;76.60;;;;;;2335336;54;21048;-68
2024/03/02 10:19:23;;;;;;;4.87;2.85;;;14.70;77.10;;;;;;2334717;54;21469;-67
2024/03/02 10:21:53;;;;;;;5.87;3.33;;;14.90;75.70;;;;;;2579754;53;21443;-67
2024/03/02 10:24:22;;;;;;;7.00;3.20;;;14.90;76.80;;;;;;2327548;54;21871;-68
2024/03/02 10:26:48;;;;;;;4.85;3.00;;;15.10;77.30;;;;;;2315160;54;21009;-69
2024/03/02 10:29:15;;;;;;;6.22;3.20;;;15.20;77.40;;;;;;2334707;54;20992;-69
2024/03/02 10:31:48;;;;;;;4.45;2.92;;;15.30;77.20;;;;;;2331114;54;21061;-73
2024/03/02 10:34:16;;;;;;;12.30;3.12;;;15.50;77.10;;;;;;2553835;53;21009;-67
2024/03/02 10:36:43;;;;;;;9.18;4.22;;;15.60;77.00;;;;;;2580127;53;21013;-68
2024/03/02 10:39:11;;;;;;;4.68;2.47;;;15.70;77.20;;;;;;2334891;54;21056;-68
2024/03/02 10:41:38;;;;;;;4.50;2.42;;;15.80;77.70;;;;;;2334878;54;21561;-68
2024/03/02 10:44:08;;;;;;;4.80;2.65;;;16.00;78.00;;;;;;2334823;54;20937;-68
2024/03/02 10:46:36;;;;;;;5.10;2.30;;;16.10;77.70;;;;;;2335265;54;21012;-69
2024/03/02 10:49:03;;;;;;;5.40;2.45;;;16.20;78.10;;;;;;2334977;54;20933;-70
2024/03/02 10:51:36;;;;;;;4.78;2.47;;;16.40;78.10;;;;;;2334816;54;21423;-67
2024/03/02 10:54:04;;;;;;;4.68;2.60;;;16.60;77.80;;;;;;2334194;54;20981;-67
2024/03/02 10:56:32;;;;;;;4.68;2.72;;;16.70;77.80;;;;;;2334810;54;21486;-67
2024/03/02 11:01:45;;;;;;;3.62;2.12;;;16.90;77.80;;;;;;2334958;54;20972;-67
2024/03/02 11:04:13;;;;;;;3.67;1.98;;;17.00;76.60;;;;;;2579657;53;20957;-67
2024/03/02 11:06:41;;;;;;;5.93;2.55;;;17.30;77.40;;;;;;2335037;54;20961;-72
2024/03/02 11:09:12;;;;;;;5.47;2.97;;;17.40;77.10;;;;;;2334949;54;20985;-69
2024/03/02 11:11:41;;;;;;;5.25;2.03;;;17.50;77.10;;;;;;2579988;53;21234;-66
2024/03/02 11:14:11;;;;;;;3.72;1.80;;;17.60;77.10;;;;;;2307208;55;21108;-67
2024/03/02 11:16:41;;;;;;;4.15;2.08;;;17.70;77.50;;;;;;2336083;54;20945;-68
2024/03/02 11:19:10;;;;;;;5.18;2.75;;;17.90;77.30;;;;;;2306377;55;22582;-67
2024/03/02 11:21:37;;;;;;;3.50;1.80;;;18.00;76.70;;;;;;2307904;54;21011;-67
2024/03/02 11:30:52;;;;;;;3.70;1.95;;;18.10;76.50;;;;;;2308207;54;21819;-67
2024/03/02 11:33:23;;;;;;;2.45;1.02;;;18.40;73.70;;;;;;2307335;54;20960;-67
2024/03/02 11:35:49;;;;;;;2.53;1.20;;;18.50;75.00;;;;;;2308260;54;20946;-66
2024/03/02 11:38:17;;;;;;;2.97;0.88;;;18.50;75.50;;;;;;2307467;54;21020;-67
2024/03/02 11:40:44;;;;;;;3.15;0.82;;;18.60;75.40;;;;;;2547531;54;21649;-67
2024/03/02 11:43:11;;;;;;;2.28;0.90;;;18.70;75.30;;;;;;2307608;54;20939;-66
2024/03/02 11:45:42;;;;;;;1.83;0.70;;;18.80;75.50;;;;;;2307854;54;21271;-66
2024/03/02 11:48:12;;;;;;;1.55;0.50;;;18.90;75.40;;;;;;2311501;54;21011;-66
2024/03/02 11:50:49;;;;;;;1.40;0.62;;;19.00;75.60;;;;;;2570150;53;21010;-67
2024/03/02 11:53:15;;;;;;;1.85;0.70;;;19.20;74.10;;;;;;2338989;54;21572;-66
2024/03/02 11:55:46;;;;;;;1.10;0.50;;;19.30;75.00;;;;;;2339877;54;21953;-67
2024/03/02 11:58:20;;;;;;;1.50;0.50;;;19.40;75.00;;;;;;2339977;54;21016;-69
2024/03/02 12:00:47;;;;;;;1.55;0.60;;;19.50;74.10;;;;;;2585603;53;21520;-67
2024/03/02 12:03:15;;;;;;;3.00;0.60;;;19.50;74.40;;;;;;2341130;54;20975;-70
2024/03/02 12:05:43;;;;;;;1.27;0.60;;;19.70;74.60;;;;;;2585786;53;20944;-69
2024/03/02 12:08:10;;;;;;;1.10;0.50;;;19.80;74.20;;;;;;2339941;54;20945;-69
2024/03/02 12:10:38;;;;;;;1.05;0.40;;;19.90;74.20;;;;;;2585463;53;20925;-70
2024/03/02 12:13:07;;;;;;;1.08;0.50;;;20.00;74.10;;;;;;2339649;54;20952;-68
2024/03/02 12:15:38;;;;;;;1.23;0.50;;;20.10;73.20;;;;;;2585467;53;20921;-70
2024/03/02 12:18:04;;;;;;;1.33;0.40;;;20.20;73.90;;;;;;2585478;53;21757;-70
2024/03/02 12:20:32;;;;;;;1.00;0.43;;;20.30;74.10;;;;;;2340142;54;21012;-69
2024/03/02 12:22:59;;;;;;;0.93;0.40;;;20.40;74.00;;;;;;2339166;54;20936;-68
2024/03/02 12:25:26;;;;;;;0.80;0.40;;;20.50;73.40;;;;;;2339729;54;21000;-68
2024/03/02 12:27:57;;;;;;;1.02;0.32;;;20.60;73.10;;;;;;2338542;54;20972;-67
2024/03/02 12:30:27;;;;;;;;;;;20.60;71.70;;;;;;2344317;54;20953;-66
2024/03/02 12:32:56;;;;;;;0.98;0.40;;;20.70;69.60;;;;;;2585810;53;20328;-67
2024/03/02 12:35:24;;;;;;;0.40;0.10;;;20.80;72.40;;;;;;2339361;54;21008;-67
2024/03/02 12:37:52;;;;;;;1.12;0.40;;;20.80;71.60;;;;;;2340052;54;20937;-68
2024/03/02 12:40:18;;;;;;;0.85;0.40;;;20.90;71.90;;;;;;2339457;54;20989;-68
2024/03/02 12:42:45;;;;;;;1.42;0.50;;;20.90;71.00;;;;;;2340375;54;20990;-69
2024/03/02 12:45:12;;;;;;;0.85;0.40;;;20.90;70.80;;;;;;2585334;53;21558;-69
2024/03/02 12:47:42;;;;;;;1.02;0.50;;;20.90;70.70;;;;;;2339959;54;21435;-70
2024/03/02 12:50:09;;;;;;;1.48;0.60;;;20.90;69.90;;;;;;2339168;54;20956;-69
2024/03/02 12:52:36;;;;;;;1.15;0.50;;;20.90;69.80;;;;;;2551958;53;21023;-69
2024/03/02 12:55:04;;;;;;;4.05;0.80;;;20.90;69.80;;;;;;2339542;54;20956;-69
2024/03/02 12:57:31;;;;;;;1.35;0.50;;;21.00;69.40;;;;;;2585534;53;21728;-68
2024/03/02 13:00:12;;;;;;;1.70;0.62;;;21.00;69.30;;;;;;2340069;54;21300;-68
2024/03/02 13:02:42;;;;;;;2.90;1.10;;;20.90;67.80;;;;;;2340269;54;21007;-68
2024/03/02 13:05:11;;;;;;;2.10;0.80;;;21.00;68.50;;;;;;2339369;54;20964;-72
2024/03/02 13:07:40;;;;;;;1.90;0.80;;;20.90;69.20;;;;;;2339922;54;20960;-67
2024/03/02 13:10:09;;;;;;;2.45;0.70;;;20.90;67.90;;;;;;2339826;54;21040;-68
2024/03/02 13:12:37;;;;;;;3.30;1.10;;;20.90;68.40;;;;;;2326270;54;21439;-73
2024/03/02 13:15:03;;;;;;;3.30;1.55;;;20.90;68.90;;;;;;2554783;53;21294;-68
2024/03/02 13:17:30;;;;;;;3.60;2.03;;;20.90;68.70;;;;;;2329174;54;20988;-67
2024/03/02 13:20:03;;;;;;;2.40;1.05;;;20.90;68.60;;;;;;2339463;54;20951;-67